Time;durP1;ratioP1;P1;durP2;ratioP2;P2;SDS_P1;SDS_P2;PMS_P1;PMS_P2;Temp;Humidity;BMP_temperature;BMP_pressure;BME280_temperature;BME280_humidity;BME280_pressure;Samples;Min_cycle;Max_cycle;Signal;HPM_P1;HPM_P2
2022/08/21 00:00:49;;;;;;;5.33;1.07;;;;;;;15.55;75.71;96205.38;10332252;28;96804;-59
2022/08/21 00:05:52;;;;;;;2.58;0.93;;;;;;;15.48;75.20;96195.59;10335178;28;97101;-59
2022/08/21 00:10:56;;;;;;;1.95;1.00;;;;;;;15.47;75.85;96204.47;10335377;28;96749;-59
2022/08/21 00:16:00;;;;;;;2.53;1.10;;;;;;;15.40;75.39;96195.66;10333090;28;96769;-60
2022/08/21 00:21:03;;;;;;;2.35;1.02;;;;;;;15.38;75.46;96200.28;10349604;28;96716;-59
2022/08/21 00:26:07;;;;;;;3.17;1.27;;;;;;;15.28;76.24;96204.97;10334790;28;97249;-59
2022/08/21 00:31:10;;;;;;;2.58;1.27;;;;;;;15.30;76.04;96202.97;10334424;28;96786;-58
2022/08/21 00:36:13;;;;;;;3.67;1.50;;;;;;;15.32;76.11;96201.81;10335018;28;97068;-59
2022/08/21 00:41:17;;;;;;;6.80;1.38;;;;;;;15.20;76.04;96202.41;10334200;28;97684;-59
2022/08/21 00:46:41;;;;;;;5.80;1.30;;;;;;;15.20;75.91;96198.00;10332218;28;97063;-59
2022/08/21 00:51:48;;;;;;;3.30;1.13;;;;;;;15.21;76.19;96188.28;10332588;28;96798;-59
2022/08/21 00:56:56;;;;;;;1.40;0.80;;;;;;;15.24;76.11;96194.00;10333996;28;97049;-59
2022/08/21 01:02:02;;;;;;;4.93;1.30;;;;;;;15.23;76.00;96181.00;10333681;28;96746;-60
2022/08/21 01:07:06;;;;;;;5.70;1.40;;;;;;;15.15;76.41;96183.72;10333629;28;96784;-59
2022/08/21 01:12:12;;;;;;;2.03;1.10;;;;;;;15.06;75.53;96177.69;10333162;28;97381;-59
2022/08/21 01:17:16;;;;;;;7.53;1.23;;;;;;;15.01;75.76;96178.25;10324586;28;96819;-59
2022/08/21 01:22:20;;;;;;;5.07;1.43;;;;;;;14.87;76.57;96189.50;10330089;28;97336;-60
2022/08/21 01:27:23;;;;;;;3.35;0.95;;;;;;;14.86;76.20;96177.38;10332377;28;96824;-59
2022/08/21 01:32:26;;;;;;;4.60;1.20;;;;;;;14.96;76.71;96179.75;10332503;28;96806;-61
2022/08/21 01:37:30;;;;;;;5.85;1.60;;;;;;;15.03;76.35;96171.00;10332821;28;99643;-59
2022/08/21 01:42:33;;;;;;;2.37;1.20;;;;;;;14.90;76.51;96165.50;10325692;28;96798;-58
2022/08/21 01:47:37;;;;;;;4.68;1.30;;;;;;;14.85;76.88;96162.56;10331338;28;96774;-59
2022/08/21 01:52:41;;;;;;;12.82;9.50;;;;;;;14.87;76.57;96156.16;10330823;28;96831;-59
2022/08/21 01:57:46;;;;;;;8.65;3.00;;;;;;;14.97;76.34;96155.91;10331643;28;97336;-59
2022/08/21 02:02:49;;;;;;;4.68;1.50;;;;;;;14.98;76.11;96152.28;10331198;28;98626;-58
2022/08/21 02:07:54;;;;;;;4.55;1.70;;;;;;;14.94;76.53;96156.28;10330391;28;97034;-58
2022/08/21 02:12:59;;;;;;;3.22;0.98;;;;;;;14.88;75.80;96143.81;10330995;28;97530;-58
2022/08/21 02:18:03;;;;;;;3.33;1.42;;;;;;;14.81;76.17;96145.53;10329940;28;96818;-59
2022/08/21 02:23:09;;;;;;;3.97;1.38;;;;;;;14.70;76.50;96149.41;10330419;28;96831;-59
2022/08/21 02:28:14;;;;;;;3.08;1.40;;;;;;;14.48;77.48;96151.00;10330727;28;96780;-59
2022/08/21 02:33:18;;;;;;;4.80;1.75;;;;;;;14.27;78.38;96141.91;10329939;28;97239;-58
2022/08/21 02:38:24;;;;;;;3.50;1.48;;;;;;;14.23;78.02;96148.50;10330579;28;97091;-58
2022/08/21 02:43:28;;;;;;;3.40;1.40;;;;;;;14.19;78.39;96137.53;10337428;28;98024;-59
2022/08/21 02:48:32;;;;;;;3.97;1.83;;;;;;;14.15;78.68;96144.09;10337644;28;97062;-58
2022/08/21 02:53:37;;;;;;;2.97;1.87;;;;;;;14.11;79.12;96149.88;10337485;28;98409;-59
2022/08/21 02:58:42;;;;;;;6.03;1.73;;;;;;;14.08;79.17;96130.03;10337442;28;98704;-59
2022/08/21 03:03:49;;;;;;;4.38;1.63;;;;;;;14.06;78.49;96131.19;10337018;28;96770;-58
2022/08/21 03:08:54;;;;;;;4.47;1.80;;;;;;;13.99;79.53;96131.88;10337640;28;96825;-58
2022/08/21 03:13:56;;;;;;;4.20;1.50;;;;;;;14.02;78.70;96145.66;10336880;28;97528;-59
2022/08/21 03:18:59;;;;;;;2.03;1.20;;;;;;;14.03;78.64;96139.41;10335043;28;97085;-59
2022/08/21 03:24:04;;;;;;;3.58;1.58;;;;;;;14.09;78.93;96130.81;10335790;28;96891;-59
2022/08/21 03:29:08;;;;;;;6.65;2.08;;;;;;;13.96;78.61;96126.16;10344362;28;96823;-58
2022/08/21 03:34:11;;;;;;;7.85;1.90;;;;;;;13.77;79.89;96132.63;10341119;28;96754;-59
2022/08/21 03:39:15;;;;;;;4.82;1.85;;;;;;;13.69;80.18;96130.88;10335876;28;97129;-58
2022/08/21 03:44:18;;;;;;;3.30;1.73;;;;;;;13.69;80.39;96124.78;10335275;28;97092;-58
2022/08/21 03:49:21;;;;;;;3.33;1.85;;;;;;;13.70;80.77;96126.41;10335974;28;97177;-58
2022/08/21 03:54:26;;;;;;;2.95;1.52;;;;;;;13.80;79.97;96129.66;10335858;28;96844;-58
2022/08/21 03:59:30;;;;;;;4.65;1.70;;;;;;;13.82;79.69;96125.06;10336021;28;97466;-58
2022/08/21 04:04:34;;;;;;;3.00;1.92;;;;;;;13.84;79.51;96117.81;10335374;28;96874;-59
2022/08/21 04:09:39;;;;;;;4.13;1.40;;;;;;;13.84;79.81;96123.06;10334879;28;98660;-59
2022/08/21 04:14:41;;;;;;;4.57;2.07;;;;;;;13.70;79.71;96129.03;10334284;28;97645;-60
2022/08/21 04:19:44;;;;;;;4.68;2.20;;;;;;;13.57;80.37;96117.28;10334216;28;96826;-58
2022/08/21 04:24:54;;;;;;;3.53;1.77;;;;;;;13.62;80.40;96122.84;10334691;28;96936;-58
2022/08/21 04:29:57;;;;;;;2.07;1.50;;;;;;;13.71;79.97;96123.63;10334282;28;96847;-59
2022/08/21 04:35:01;;;;;;;1.70;1.40;;;;;;;13.74;78.96;96125.09;10333438;28;97078;-58
2022/08/21 04:40:06;;;;;;;4.28;1.65;;;;;;;13.65;79.86;96128.72;10334083;28;97150;-58
2022/08/21 04:45:09;;;;;;;2.35;1.52;;;;;;;13.62;79.75;96127.28;10333915;28;97906;-58
2022/08/21 04:50:12;;;;;;;2.08;1.50;;;;;;;13.58;79.63;96129.41;10334951;28;97163;-59
2022/08/21 04:55:18;;;;;;;5.35;1.80;;;;;;;13.56;79.48;96134.00;10333904;28;96983;-58
2022/08/21 05:00:24;;;;;;;3.75;1.65;;;;;;;13.56;78.87;96135.81;10331578;28;96946;-59
2022/08/21 05:05:29;;;;;;;3.15;1.40;;;;;;;13.55;79.51;96148.13;10331444;28;97312;-58
2022/08/21 05:10:34;;;;;;;3.53;1.73;;;;;;;13.55;79.28;96149.91;10333425;28;96809;-59
2022/08/21 05:15:37;;;;;;;2.22;1.17;;;;;;;13.55;78.47;96156.00;10333277;28;96754;-59
2022/08/21 05:20:40;;;;;;;2.15;1.25;;;;;;;13.56;78.39;96157.63;10333257;28;96778;-58
2022/08/21 05:25:44;;;;;;;2.38;1.50;;;;;;;13.65;79.26;96145.28;10332415;28;96827;-59
2022/08/21 05:30:47;;;;;;;4.03;1.70;;;;;;;13.72;79.06;96150.69;10332930;28;96858;-58
2022/08/21 05:35:52;;;;;;;4.57;2.10;;;;;;;13.71;79.15;96138.56;10332212;28;98842;-58
2022/08/21 05:40:56;;;;;;;2.67;1.60;;;;;;;13.85;79.14;96150.97;10332409;28;96810;-59
2022/08/21 05:45:59;;;;;;;4.53;2.03;;;;;;;13.95;79.79;96143.72;10332004;28;96820;-58
2022/08/21 05:51:06;;;;;;;2.30;1.75;;;;;;;14.08;79.75;96134.47;10332050;28;97289;-59
2022/08/21 05:56:12;;;;;;;2.55;1.60;;;;;;;14.19;80.50;96139.31;10330419;28;96771;-58
2022/08/21 06:01:15;;;;;;;3.33;2.00;;;;;;;14.35;79.96;96141.91;10331609;28;97669;-58
2022/08/21 06:06:18;;;;;;;2.55;2.00;;;;;;;14.48;79.95;96136.06;10331086;28;96832;-59
2022/08/21 06:11:22;;;;;;;3.80;1.52;;;;;;;14.57;79.38;96149.97;10331680;28;96847;-59
2022/08/21 06:16:30;;;;;;;1.65;1.52;;;;;;;14.67;79.16;96155.00;10320530;28;96860;-58
2022/08/21 06:21:33;;;;;;;1.55;1.20;;;;;;;14.81;79.85;96141.06;10331349;28;96918;-58
2022/08/21 06:26:38;;;;;;;3.95;2.63;;;;;;;14.96;79.48;96138.50;10330497;28;97654;-59
2022/08/21 06:31:41;;;;;;;3.15;2.05;;;;;;;15.12;79.47;96130.44;10332674;28;96731;-59
2022/08/21 06:36:44;;;;;;;4.22;2.67;;;;;;;15.23;79.16;96126.56;10319029;28;96861;-58
2022/08/21 06:41:48;;;;;;;6.10;3.45;;;;;;;15.36;79.26;96127.78;10330220;28;97058;-58
2022/08/21 06:46:51;;;;;;;4.10;3.20;;;;;;;15.52;79.04;96118.88;10329412;28;97098;-58
2022/08/21 06:51:54;;;;;;;4.68;2.58;;;;;;;15.61;78.61;96120.44;10330120;28;96872;-58
2022/08/21 06:56:58;;;;;;;3.65;3.03;;;;;;;15.74;78.70;96135.59;10330153;28;96963;-59
2022/08/21 07:02:01;;;;;;;2.80;2.40;;;;;;;15.87;78.34;96131.31;10330464;28;97310;-58
2022/08/21 07:07:04;;;;;;;3.03;2.20;;;;;;;15.99;78.41;96138.78;10326239;28;96771;-59
2022/08/21 07:12:09;;;;;;;2.80;2.17;;;;;;;16.13;78.21;96134.47;10329978;28;96902;-59
2022/08/21 07:17:12;;;;;;;2.78;2.20;;;;;;;16.24;77.88;96133.97;10329634;28;96859;-59
2022/08/21 07:22:19;;;;;;;2.20;1.95;;;;;;;16.36;77.39;96135.16;10330191;28;96860;-58
2022/08/21 07:27:23;;;;;;;2.50;2.30;;;;;;;16.32;76.92;96133.88;10333683;28;96837;-58
2022/08/21 07:32:26;;;;;;;2.17;1.70;;;;;;;16.49;77.40;96137.09;10336118;28;97551;-59
2022/08/21 07:37:29;;;;;;;6.15;4.30;;;;;;;16.76;77.37;96134.75;10334604;28;98105;-58
2022/08/21 07:42:33;;;;;;;3.28;2.55;;;;;;;17.05;76.86;96138.25;10335282;28;96901;-59
2022/08/21 07:47:36;;;;;;;6.75;5.95;;;;;;;17.29;75.58;96123.81;10335263;28;97218;-58
2022/08/21 07:52:44;;;;;;;3.08;2.25;;;;;;;17.50;75.49;96133.50;10335410;28;99037;-59
2022/08/21 07:57:49;;;;;;;8.15;6.82;;;;;;;17.62;75.03;96129.31;10335371;28;96884;-58
2022/08/21 08:02:53;;;;;;;4.22;2.97;;;;;;;17.81;75.16;96130.41;10335122;28;97052;-58
2022/08/21 08:07:57;;;;;;;2.28;2.05;;;;;;;17.86;74.92;96124.59;10335114;28;96984;-59
2022/08/21 08:13:02;;;;;;;3.43;2.23;;;;;;;17.99;74.71;96123.81;10335456;28;96687;-59
2022/08/21 08:18:05;;;;;;;2.42;2.22;;;;;;;18.00;74.26;96123.63;10334964;28;96752;-59
2022/08/21 08:23:10;;;;;;;3.33;2.40;;;;;;;18.16;74.35;96124.31;10334930;28;96887;-59
2022/08/21 08:28:14;;;;;;;3.47;2.20;;;;;;;18.38;73.58;96127.63;10333127;28;98034;-59
2022/08/21 08:33:19;;;;;;;3.88;2.10;;;;;;;18.56;73.67;96119.13;10333962;28;97191;-59
2022/08/21 08:38:25;;;;;;;2.72;2.08;;;;;;;18.73;73.02;96128.31;10333332;28;97282;-59
2022/08/21 08:43:32;;;;;;;2.35;1.92;;;;;;;18.93;72.22;96115.09;10334177;28;96840;-59
2022/08/21 08:48:46;;;;;;;3.83;1.80;;;;;;;19.11;71.94;96106.56;10333918;28;97670;-58
2022/08/21 08:54:01;;;;;;;3.50;1.83;;;;;;;19.27;71.09;96091.28;10333728;28;96810;-59
2022/08/21 08:59:10;;;;;;;2.38;1.55;;;;;;;19.32;70.86;96102.88;10333678;28;96808;-59
2022/08/21 09:04:15;;;;;;;3.40;1.73;;;;;;;19.27;70.09;96091.28;10333749;28;97555;-59
2022/08/21 09:09:39;;;;;;;2.47;1.40;;;;;;;19.35;68.81;96091.88;10333210;28;96785;-59
2022/08/21 09:14:55;;;;;;;1.83;1.67;;;;;;;19.54;68.07;96095.50;10332890;28;96856;-60
2022/08/21 09:20:13;;;;;;;2.75;1.60;;;;;;;19.56;67.79;96084.69;10332199;28;96764;-59
2022/08/21 09:25:22;;;;;;;1.90;1.65;;;;;;;19.74;67.53;96086.69;10332929;28;97104;-59
2022/08/21 09:30:30;;;;;;;2.35;1.52;;;;;;;19.79;67.21;96081.56;10334448;28;96768;-59
2022/08/21 09:35:35;;;;;;;2.10;1.42;;;;;;;19.96;66.88;96079.28;10332119;28;96775;-59
2022/08/21 09:40:41;;;;;;;1.92;1.50;;;;;;;20.21;66.19;96068.75;10332526;28;96915;-61
2022/08/21 09:45:47;;;;;;;1.65;1.30;;;;;;;20.29;65.67;96060.56;10332286;28;96796;-59
2022/08/21 09:50:51;;;;;;;2.50;1.20;;;;;;;20.34;65.35;96068.69;10332104;28;96818;-60
2022/08/21 10:01:21;;;;;;;2.45;1.42;;;;;;;20.47;64.34;96061.66;10331611;28;96882;-59
2022/08/21 10:06:29;;;;;;;2.30;1.40;;;;;;;20.60;64.86;96050.13;10331524;28;97276;-60
2022/08/21 10:11:34;;;;;;;2.25;1.63;;;;;;;20.63;65.08;96045.22;10330654;28;96648;-60
2022/08/21 10:16:42;;;;;;;;;;;;;;;20.72;65.15;96043.94;10331472;28;96701;-59
2022/08/21 10:21:59;;;;;;;1.75;1.30;;;;;;;20.79;64.20;96025.31;10330442;28;98100;-59
2022/08/21 10:27:15;;;;;;;1.30;1.20;;;;;;;21.02;63.61;96024.72;10330379;28;96988;-59
2022/08/21 10:32:41;;;;;;;1.88;1.33;;;;;;;21.24;62.13;96019.81;10330417;28;96846;-59
2022/08/21 10:37:58;;;;;;;1.35;1.25;;;;;;;21.45;61.25;96013.22;10329284;28;96699;-59
2022/08/21 10:43:17;;;;;;;2.88;1.05;;;;;;;21.59;59.36;96015.72;10328948;28;96721;-60
2022/08/21 10:48:28;;;;;;;1.00;0.90;;;;;;;21.66;58.64;95996.03;10323318;28;96882;-60
2022/08/21 10:53:55;;;;;;;1.23;0.90;;;;;;;21.71;57.44;96000.69;10320184;28;97118;-59
2022/08/21 10:59:08;;;;;;;1.77;0.90;;;;;;;21.80;57.77;96001.19;10323591;28;96947;-59
2022/08/21 11:04:19;;;;;;;1.83;1.10;;;;;;;21.99;58.49;95988.69;10335780;28;97649;-60
2022/08/21 11:09:26;;;;;;;1.73;1.60;;;;;;;22.20;56.52;95990.00;10334073;28;97276;-59
2022/08/21 11:14:40;;;;;;;2.17;1.50;;;;;;;22.35;54.92;95981.59;10327595;28;97962;-60
2022/08/21 11:19:59;;;;;;;9.27;7.80;;;;;;;22.49;55.40;95984.88;10331005;28;98326;-59
2022/08/21 11:25:10;;;;;;;1.20;1.00;;;;;;;22.46;55.10;95972.84;10332960;28;96881;-60
2022/08/21 11:30:14;;;;;;;0.98;0.82;;;;;;;22.63;55.32;95963.16;10334678;28;97049;-59
2022/08/21 11:35:31;;;;;;;2.33;1.00;;;;;;;22.81;55.96;95961.41;10332129;28;97345;-60
2022/08/21 11:40:59;;;;;;;19.70;17.67;;;;;;;23.03;54.63;95955.50;10326629;28;97338;-60
2022/08/21 11:46:15;;;;;;;2.95;1.40;;;;;;;23.14;54.89;95957.34;10329176;28;97021;-59
2022/08/21 11:51:27;;;;;;;1.00;0.80;;;;;;;23.09;52.71;95954.56;10323727;28;97392;-61
2022/08/21 11:56:37;;;;;;;1.13;0.88;;;;;;;23.03;53.76;95942.16;10330950;28;98071;-60
2022/08/21 12:01:45;;;;;;;1.60;1.02;;;;;;;23.18;53.86;95950.50;10331287;28;97701;-60
2022/08/21 12:06:49;;;;;;;1.13;1.00;;;;;;;23.29;52.58;95939.03;10333959;28;98178;-60
2022/08/21 12:12:03;;;;;;;2.40;0.93;;;;;;;23.48;52.57;95936.19;10332282;28;98362;-60
2022/08/21 12:17:10;;;;;;;1.52;1.00;;;;;;;23.60;51.52;95936.97;10333530;28;97977;-59
2022/08/21 12:22:16;;;;;;;1.52;1.02;;;;;;;23.71;50.48;95928.13;10333412;28;96865;-60
2022/08/21 12:27:28;;;;;;;1.20;0.98;;;;;;;23.74;50.75;95927.66;10331002;28;96957;-60
2022/08/21 12:32:51;;;;;;;1.83;0.90;;;;;;;24.14;50.14;95928.66;10330351;28;98893;-60
2022/08/21 12:38:10;;;;;;;1.23;0.75;;;;;;;24.29;49.78;95936.09;10331899;28;97022;-60
2022/08/21 12:43:19;;;;;;;0.80;0.70;;;;;;;24.34;50.38;95922.03;10322389;28;97464;-60
2022/08/21 12:48:27;;;;;;;0.93;0.82;;;;;;;24.69;49.16;95921.75;10329363;28;97387;-60
2022/08/21 12:53:36;;;;;;;1.00;0.90;;;;;;;24.80;48.63;95915.50;10331601;28;96825;-60
2022/08/21 12:58:42;;;;;;;1.27;0.75;;;;;;;25.12;48.58;95906.88;10329383;28;96732;-60
2022/08/21 13:03:46;;;;;;;1.65;0.77;;;;;;;25.64;47.66;95905.63;10330837;28;96897;-60
2022/08/21 13:09:11;;;;;;;0.80;0.80;;;;;;;26.05;47.37;95910.56;10329945;28;96865;-60
2022/08/21 13:14:19;;;;;;;1.15;0.75;;;;;;;26.28;47.09;95912.94;10331251;28;96784;-60
2022/08/21 13:19:23;;;;;;;1.27;0.60;;;;;;;26.39;46.48;95897.75;10329757;28;97637;-61
2022/08/21 13:24:30;;;;;;;0.60;0.55;;;;;;;26.28;45.26;95904.91;10332161;28;98005;-60
2022/08/21 13:29:44;;;;;;;1.30;0.73;;;;;;;26.28;45.54;95904.91;10330057;28;98432;-60
2022/08/21 13:34:55;;;;;;;1.48;0.80;;;;;;;25.96;45.47;95916.41;10331693;28;97003;-60
2022/08/21 13:40:00;;;;;;;1.20;0.83;;;;;;;25.79;46.13;95907.66;10327244;28;96799;-60
2022/08/21 13:45:03;;;;;;;3.80;0.88;;;;;;;25.97;46.22;95907.28;10330419;28;97396;-61
2022/08/21 13:50:07;;;;;;;0.97;0.70;;;;;;;26.12;45.47;95908.47;10329951;28;97658;-60
2022/08/21 13:55:16;;;;;;;0.80;0.73;;;;;;;26.18;44.62;95902.91;10331928;28;96902;-60
2022/08/21 14:00:25;;;;;;;0.70;0.70;;;;;;;26.41;45.53;95897.50;10331809;28;97203;-61
2022/08/21 14:05:31;;;;;;;0.80;0.80;;;;;;;26.49;44.72;95897.03;10327025;28;96907;-61
2022/08/21 14:10:41;;;;;;;1.80;0.80;;;;;;;26.64;44.15;95889.13;10330979;28;97296;-61
2022/08/21 14:15:55;;;;;;;1.20;1.00;;;;;;;26.86;45.64;95882.78;10338004;28;96794;-60
2022/08/21 14:21:07;;;;;;;1.98;0.90;;;;;;;26.97;44.48;95881.81;10320125;28;96803;-60
2022/08/21 14:26:11;;;;;;;0.95;0.70;;;;;;;27.37;43.06;95891.09;10330338;28;97470;-60
2022/08/21 14:31:17;;;;;;;0.60;0.60;;;;;;;27.53;41.92;95888.47;10320310;28;96916;-60
2022/08/21 14:36:21;;;;;;;0.98;0.70;;;;;;;27.44;43.08;95880.09;10326105;28;96782;-60
2022/08/21 14:41:28;;;;;;;1.83;0.70;;;;;;;27.37;41.65;95879.56;10337299;28;97126;-60
2022/08/21 14:46:34;;;;;;;1.00;0.70;;;;;;;27.88;40.85;95877.03;10326605;28;96818;-60
2022/08/21 14:51:38;;;;;;;0.90;0.70;;;;;;;28.34;39.44;95871.72;10344188;28;97806;-60
2022/08/21 14:56:57;;;;;;;0.93;0.70;;;;;;;28.15;40.33;95867.91;10331928;28;97000;-63
2022/08/21 15:02:02;;;;;;;1.50;0.70;;;;;;;27.68;42.18;95864.38;10335925;28;96835;-60
2022/08/21 15:07:05;;;;;;;1.33;0.50;;;;;;;28.13;40.58;95867.38;10334938;28;97186;-60
2022/08/21 15:12:11;;;;;;;0.88;0.60;;;;;;;28.26;39.12;95860.69;10336786;28;96875;-60
2022/08/21 15:17:14;;;;;;;1.00;0.52;;;;;;;27.85;38.89;95854.19;10334674;28;96702;-60
2022/08/21 15:22:17;;;;;;;0.90;0.70;;;;;;;27.48;39.73;95849.81;10331153;28;96913;-60
2022/08/21 15:27:31;;;;;;;0.68;0.68;;;;;;;27.59;38.87;95845.28;10333098;28;96743;-61
2022/08/21 15:32:33;;;;;;;2.13;0.93;;;;;;;27.54;39.50;95857.88;10332244;28;96920;-60
2022/08/21 15:37:36;;;;;;;1.13;0.70;;;;;;;27.36;39.80;95838.53;10336601;28;96743;-60
2022/08/21 15:42:42;;;;;;;1.13;0.63;;;;;;;27.41;39.64;95843.09;10325549;28;96838;-60
2022/08/21 15:47:46;;;;;;;0.68;0.65;;;;;;;28.27;38.54;95838.88;10335855;28;97193;-60
2022/08/21 15:52:49;;;;;;;2.55;0.60;;;;;;;29.22;36.99;95842.72;10328772;28;98208;-60
2022/08/21 15:57:54;;;;;;;1.60;0.63;;;;;;;29.60;36.87;95831.53;10331917;28;97220;-60
2022/08/21 16:03:00;;;;;;;1.73;0.57;;;;;;;29.37;37.11;95831.09;10334505;28;96743;-60
2022/08/21 16:08:03;;;;;;;1.25;0.60;;;;;;;29.06;36.70;95825.06;10334657;28;96942;-60
2022/08/21 16:13:14;;;;;;;0.85;0.73;;;;;;;28.88;36.97;95810.31;10332839;28;96811;-60
2022/08/21 16:18:20;;;;;;;0.75;0.70;;;;;;;29.31;37.33;95816.84;10334006;28;96897;-60
2022/08/21 16:23:23;;;;;;;0.82;0.70;;;;;;;29.68;36.13;95815.59;10333913;28;96949;-61
2022/08/21 16:28:29;;;;;;;2.45;0.63;;;;;;;29.61;35.70;95825.88;10333518;28;97195;-60
2022/08/21 16:33:35;;;;;;;0.60;0.60;;;;;;;29.21;37.78;95822.31;10328403;28;96947;-60
2022/08/21 16:38:39;;;;;;;1.27;0.70;;;;;;;28.73;37.61;95819.25;10332849;28;97055;-60
2022/08/21 16:43:44;;;;;;;1.08;0.73;;;;;;;28.52;37.09;95830.03;10323437;28;96897;-60
2022/08/21 16:48:47;;;;;;;3.20;0.80;;;;;;;28.26;36.62;95825.75;10332770;28;96859;-60
2022/08/21 16:53:50;;;;;;;1.70;0.63;;;;;;;27.86;37.57;95812.88;10331919;28;96816;-61
2022/08/21 16:58:56;;;;;;;1.38;1.05;;;;;;;27.44;37.75;95816.56;10325255;28;97208;-60
2022/08/21 17:03:59;;;;;;;1.73;1.10;;;;;;;27.09;38.60;95818.06;10327942;28;96958;-60
2022/08/21 17:09:02;;;;;;;3.28;1.52;;;;;;;26.24;37.63;95815.44;10329792;28;96794;-60
2022/08/21 17:14:10;;;;;;;2.40;1.00;;;;;;;25.90;38.04;95807.69;10332680;28;96919;-60
2022/08/21 17:19:13;;;;;;;2.90;1.42;;;;;;;25.50;37.83;95816.94;10332780;28;97071;-59
2022/08/21 17:24:16;;;;;;;2.40;1.30;;;;;;;25.09;37.80;95821.03;10333028;28;97092;-59
2022/08/21 17:29:25;;;;;;;5.63;1.50;;;;;;;25.06;38.09;95817.81;10332900;28;96794;-60
2022/08/21 17:34:28;;;;;;;3.30;1.60;;;;;;;25.25;37.86;95818.28;10332694;28;98613;-61
2022/08/21 17:39:34;;;;;;;4.97;1.45;;;;;;;24.98;38.36;95825.47;10332672;28;96788;-60
2022/08/21 17:44:41;;;;;;;3.15;1.40;;;;;;;24.60;38.49;95829.75;10332024;28;98451;-60
2022/08/21 17:49:44;;;;;;;2.25;1.52;;;;;;;24.27;39.08;95826.09;10332369;28;97008;-59
2022/08/21 17:54:47;;;;;;;3.37;1.73;;;;;;;23.91;39.40;95823.66;10330890;28;97212;-61
2022/08/21 17:59:51;;;;;;;4.53;1.58;;;;;;;23.66;39.85;95831.22;10332032;28;97097;-59
2022/08/21 18:04:59;;;;;;;2.97;1.30;;;;;;;23.38;40.14;95831.00;10331986;28;96789;-60
2022/08/21 18:10:05;;;;;;;3.42;1.52;;;;;;;23.11;39.93;95829.91;10331262;28;96793;-60
2022/08/21 18:15:12;;;;;;;2.72;1.60;;;;;;;22.83;40.27;95836.81;10329238;28;97233;-59
2022/08/21 18:20:17;;;;;;;5.38;1.63;;;;;;;22.68;40.36;95833.84;10326320;28;97688;-60
2022/08/21 18:25:20;;;;;;;4.32;1.95;;;;;;;22.52;40.67;95838.84;10334176;28;96804;-60
2022/08/21 18:30:24;;;;;;;3.20;1.80;;;;;;;22.40;41.08;95835.34;10331540;28;96830;-60
2022/08/21 18:35:28;;;;;;;3.20;1.65;;;;;;;22.27;41.41;95848.91;10330776;28;97698;-59
2022/08/21 18:40:37;;;;;;;4.93;2.05;;;;;;;22.09;41.67;95845.28;10332445;28;97035;-60
2022/08/21 18:45:41;;;;;;;3.10;1.77;;;;;;;21.94;41.73;95847.59;10329037;28;96916;-60
2022/08/21 18:50:45;;;;;;;;;;;;;;;21.84;41.59;95848.94;10330332;28;96660;-59
2022/08/21 18:55:49;;;;;;;;;;;;;;;21.75;41.92;95855.63;10330869;28;96759;-59
2022/08/21 19:00:54;;;;;;;5.80;1.75;;;;;;;21.65;42.77;95860.69;10330137;28;98145;-59
2022/08/21 19:05:57;;;;;;;3.33;1.83;;;;;;;21.54;42.59;95856.94;10330247;28;97407;-59
2022/08/21 19:11:01;;;;;;;3.07;1.83;;;;;;;21.53;42.67;95863.28;10330094;28;96897;-60
2022/08/21 19:16:08;;;;;;;4.60;1.88;;;;;;;21.51;42.81;95876.78;10325115;28;97542;-60
2022/08/21 19:21:11;;;;;;;12.45;9.07;;;;;;;21.53;43.08;95873.09;10329160;28;96857;-59
2022/08/21 19:26:15;;;;;;;4.57;2.00;;;;;;;21.53;43.14;95878.41;10336398;28;97763;-59
2022/08/21 19:31:22;;;;;;;4.70;1.70;;;;;;;21.42;43.23;95872.84;10336582;28;96799;-59
2022/08/21 19:36:25;;;;;;;5.82;2.10;;;;;;;21.36;43.44;95873.72;10328872;28;96913;-60
2022/08/21 19:41:32;;;;;;;4.60;2.33;;;;;;;21.32;43.50;95875.22;10335997;28;96998;-59
2022/08/21 19:46:39;;;;;;;4.90;1.95;;;;;;;21.30;43.54;95874.63;10335603;28;97359;-60
2022/08/21 19:51:43;;;;;;;6.35;2.20;;;;;;;21.25;43.68;95871.84;10336220;28;97165;-60
2022/08/21 19:56:47;;;;;;;5.50;2.13;;;;;;;21.23;43.70;95871.25;10335347;28;97478;-59
2022/08/21 20:01:51;;;;;;;;;;;;;;;21.19;43.85;95878.88;10335261;28;96840;-59
2022/08/21 20:06:54;;;;;;;4.82;2.15;;;;;;;21.10;44.01;95880.19;10335643;28;97969;-59
2022/08/21 20:12:01;;;;;;;3.97;1.90;;;;;;;21.07;44.38;95881.44;10336200;28;97697;-59
2022/08/21 20:17:15;;;;;;;5.97;1.90;;;;;;;21.05;44.75;95883.53;10334561;28;97207;-59
2022/08/21 20:22:19;;;;;;;3.55;2.00;;;;;;;21.06;44.26;95873.69;10335112;28;96838;-59
2022/08/21 20:27:25;;;;;;;3.28;1.75;;;;;;;21.05;44.11;95877.38;10333832;28;97031;-60
2022/08/21 20:32:30;;;;;;;2.92;1.83;;;;;;;21.05;44.26;95883.53;10326981;28;97819;-60
2022/08/21 20:37:34;;;;;;;3.30;1.70;;;;;;;21.09;44.25;95890.00;10319690;28;97037;-59
2022/08/21 20:42:39;;;;;;;5.45;2.20;;;;;;;21.07;44.36;95892.06;10330102;28;98864;-58
2022/08/21 20:47:48;;;;;;;6.60;3.58;;;;;;;21.03;45.10;95890.91;10334618;28;97140;-60
2022/08/21 20:53:15;;;;;;;5.53;2.45;;;;;;;20.88;45.93;95883.31;10331627;28;97972;-59
2022/08/21 20:58:31;;;;;;;4.18;2.22;;;;;;;20.79;46.38;95891.75;10349090;28;97000;-59
2022/08/21 21:03:40;;;;;;;5.20;2.28;;;;;;;20.71;46.28;95893.66;10329738;28;96851;-59
2022/08/21 21:08:48;;;;;;;3.47;2.13;;;;;;;20.66;46.36;95895.34;10328884;28;96729;-59
2022/08/21 21:13:57;;;;;;;4.65;2.13;;;;;;;20.63;46.96;95895.78;10325793;28;97048;-59
2022/08/21 21:19:05;;;;;;;4.60;2.08;;;;;;;20.56;47.18;95901.16;10326213;28;96895;-60
2022/08/21 21:24:19;;;;;;;3.63;2.08;;;;;;;20.51;47.52;95901.81;10331434;28;96854;-60
2022/08/21 21:29:26;;;;;;;5.32;2.30;;;;;;;20.42;48.03;95907.63;10332373;28;98619;-60
2022/08/21 21:34:39;;;;;;;4.80;2.20;;;;;;;20.20;48.92;95902.72;10326695;28;96972;-59
2022/08/21 21:39:51;;;;;;;3.90;1.88;;;;;;;19.96;49.73;95899.00;10332362;28;97622;-60
2022/08/21 21:45:08;;;;;;;3.40;1.65;;;;;;;19.74;50.55;95906.47;10328064;28;97060;-59
2022/08/21 21:50:31;;;;;;;3.97;2.10;;;;;;;19.73;50.99;95915.41;10316712;28;96969;-59
2022/08/21 21:55:46;;;;;;;3.83;2.30;;;;;;;19.69;51.30;95912.38;10320493;28;96880;-59
2022/08/21 22:00:58;;;;;;;4.28;2.15;;;;;;;19.63;51.61;95906.09;10322507;28;98108;-59
2022/08/21 22:06:10;;;;;;;5.30;2.17;;;;;;;19.57;51.06;95901.66;10331526;28;96903;-60
2022/08/21 22:11:24;;;;;;;4.47;2.20;;;;;;;19.53;51.84;95899.66;10329620;28;97086;-61
2022/08/21 22:16:50;;;;;;;5.53;2.03;;;;;;;19.31;51.96;95896.50;10326808;28;97121;-59
2022/08/21 22:22:01;;;;;;;6.47;2.20;;;;;;;18.97;52.88;95888.69;10314875;28;97230;-59
2022/08/21 22:27:13;;;;;;;4.90;1.77;;;;;;;18.79;53.09;95891.94;10318349;28;97211;-60
2022/08/21 22:32:25;;;;;;;8.15;2.53;;;;;;;18.76;53.47;95902.97;10319948;28;96873;-59
2022/08/21 22:37:36;;;;;;;3.63;1.77;;;;;;;18.63;54.31;95908.28;10325307;28;97218;-59
2022/08/21 22:42:38;;;;;;;4.97;2.08;;;;;;;18.63;53.46;95903.00;10328141;28;97135;-59
2022/08/21 22:47:44;;;;;;;4.40;2.08;;;;;;;18.62;52.84;95906.66;10305326;28;97874;-60
2022/08/21 22:52:53;;;;;;;4.40;1.80;;;;;;;18.49;53.82;95908.28;10320525;28;96803;-59
2022/08/21 22:58:06;;;;;;;5.43;2.05;;;;;;;18.32;55.14;95915.03;10334142;28;96761;-59
2022/08/21 23:03:18;;;;;;;3.97;1.83;;;;;;;18.16;55.77;95908.31;10326039;28;97357;-59
2022/08/21 23:08:33;;;;;;;4.95;2.05;;;;;;;18.22;55.31;95914.63;10336821;28;96767;-59
2022/08/21 23:13:44;;;;;;;5.72;2.22;;;;;;;18.19;55.20;95913.22;10336542;28;97034;-59
2022/08/21 23:19:00;;;;;;;4.20;1.83;;;;;;;18.09;55.11;95908.31;10324817;28;96755;-60
2022/08/21 23:24:20;;;;;;;3.42;1.83;;;;;;;17.96;55.36;95916.25;10336623;28;96838;-59
2022/08/21 23:29:32;;;;;;;4.20;1.95;;;;;;;17.89;55.59;95912.78;10333443;28;96842;-59
2022/08/21 23:34:44;;;;;;;3.90;2.08;;;;;;;17.80;56.62;95920.03;10329783;28;96876;-59
2022/08/21 23:40:03;;;;;;;4.22;2.00;;;;;;;17.71;56.91;95922.06;10326185;28;97340;-59
2022/08/21 23:45:20;;;;;;;5.30;2.15;;;;;;;17.76;57.51;95922.28;10330247;28;97406;-59
2022/08/21 23:50:36;;;;;;;6.50;2.33;;;;;;;17.75;58.20;95922.47;10323743;28;97656;-60
2022/08/21 23:55:54;;;;;;;3.83;2.15;;;;;;;17.48;59.51;95926.91;10326519;28;98062;-58
